Time;durP1;ratioP1;P1;durP2;ratioP2;P2;SDS_P1;SDS_P2;PMS_P1;PMS_P2;Temp;Humidity;BMP_temperature;BMP_pressure;BME280_temperature;BME280_humidity;BME280_pressure;Samples;Min_cycle;Max_cycle;Signal;HPM_P1;HPM_P2
2023/12/10 00:01:26;;;;;;;;;;;2.40;99.90;;;;;;4969202;28;19940;-64
2023/12/10 00:03:51;;;;;;;;;;;2.40;99.90;;;;;;4972982;28;20512;-64
2023/12/10 00:06:17;;;;;;;;;;;2.20;99.90;;;;;;4973553;28;19948;-64
2023/12/10 00:08:42;;;;;;;;;;;2.20;99.90;;;;;;4974159;28;20018;-64
2023/12/10 00:11:08;;;;;;;;;;;2.30;99.90;;;;;;4972643;28;20412;-64
2023/12/10 00:13:33;;;;;;;;;;;2.30;99.90;;;;;;4968898;28;19954;-64
2023/12/10 00:15:59;;;;;;;;;;;2.30;99.90;;;;;;4968964;28;19945;-64
2023/12/10 00:18:24;;;;;;;;;;;2.30;99.90;;;;;;4968379;28;19952;-64
2023/12/10 00:20:50;;;;;;;;;;;2.20;99.90;;;;;;4966383;28;20585;-65
2023/12/10 00:23:15;;;;;;;;;;;2.30;99.90;;;;;;4973167;28;19948;-64
2023/12/10 00:25:43;;;;;;;;;;;2.30;99.90;;;;;;4968857;28;20043;-63
2023/12/10 00:28:08;;;;;;;;;;;2.10;99.90;;;;;;4966225;28;19970;-63
2023/12/10 00:30:34;;;;;;;;;;;2.00;99.90;;;;;;4967896;28;20622;-63
2023/12/10 00:33:00;;;;;;;;;;;2.00;99.90;;;;;;4969452;28;19943;-63
2023/12/10 00:35:26;;;;;;;;;;;2.10;99.90;;;;;;4968092;28;19953;-63
2023/12/10 00:37:51;;;;;;;;;;;2.20;99.90;;;;;;4968559;28;20040;-63
2023/12/10 00:40:17;;;;;;;;;;;2.30;99.90;;;;;;4970968;28;19972;-63
2023/12/10 00:42:43;;;;;;;;;;;2.40;99.90;;;;;;4966294;28;19944;-63
2023/12/10 00:45:09;;;;;;;;;;;2.50;99.90;;;;;;4969441;28;19943;-63
2023/12/10 00:47:34;;;;;;;;;;;2.50;99.90;;;;;;4969055;28;20096;-63
2023/12/10 00:50:00;;;;;;;;;;;2.60;99.90;;;;;;4970506;28;20445;-63
2023/12/10 00:52:25;;;;;;;;;;;2.50;99.90;;;;;;4969355;28;19986;-63
2023/12/10 00:54:51;;;;;;;;;;;2.60;99.90;;;;;;4962286;28;20700;-63
2023/12/10 00:57:16;;;;;;;;;;;2.60;99.90;;;;;;4969906;28;19944;-63
2023/12/10 00:59:42;;;;;;;;;;;2.60;99.90;;;;;;4963606;28;21803;-62
2023/12/10 01:02:07;;;;;;;;;;;2.70;99.90;;;;;;4965418;28;20404;-63
2023/12/10 01:04:33;;;;;;;;;;;2.70;99.90;;;;;;4966526;28;19934;-63
2023/12/10 01:06:58;;;;;;;;;;;2.80;99.90;;;;;;4968566;28;20325;-63
2023/12/10 01:09:24;;;;;;;;;;;2.80;99.90;;;;;;4969788;28;20410;-65
2023/12/10 01:11:49;;;;;;;;;;;2.80;99.90;;;;;;4969171;28;20554;-63
2023/12/10 01:14:15;;;;;;;;;;;2.70;99.90;;;;;;4964474;28;20445;-63
2023/12/10 01:16:41;;;;;;;;;;;2.70;99.90;;;;;;4949088;28;19943;-63
2023/12/10 01:19:06;;;;;;;;;;;2.80;99.90;;;;;;4965946;28;19945;-63
2023/12/10 01:21:32;;;;;;;;;;;2.80;99.90;;;;;;4959663;28;19996;-64
2023/12/10 01:23:59;;;;;;;;;;;2.80;99.90;;;;;;4969362;28;20420;-66
2023/12/10 01:26:24;;;;;;;;;;;2.80;99.90;;;;;;4966145;28;19955;-63
2023/12/10 01:28:51;;;;;;;;;;;2.70;99.90;;;;;;4964297;28;19973;-63
2023/12/10 01:31:16;;;;;;;;;;;2.60;99.90;;;;;;4968223;28;20465;-63
2023/12/10 01:33:42;;;;;;;;;;;2.50;99.90;;;;;;4969911;28;19957;-63
2023/12/10 01:36:08;;;;;;;;;;;2.40;99.90;;;;;;4961281;28;19995;-63
2023/12/10 01:38:34;;;;;;;;;;;2.40;99.90;;;;;;4966159;28;20631;-62
2023/12/10 01:40:59;;;;;;;;;;;2.50;99.90;;;;;;4969489;28;20008;-62
2023/12/10 01:43:25;;;;;;;;;;;2.50;99.90;;;;;;4967601;28;19944;-62
2023/12/10 01:45:53;;;;;;;;;;;2.50;99.90;;;;;;4966077;28;22166;-63
2023/12/10 01:48:23;;;;;;;;;;;2.50;99.90;;;;;;4946001;28;19972;-63
2023/12/10 01:50:49;;;;;;;;;;;2.60;99.90;;;;;;4946322;28;20893;-63
2023/12/10 01:53:15;;;;;;;;;;;2.60;99.90;;;;;;4945196;28;19952;-63
2023/12/10 01:55:44;;;;;;;;;;;2.50;99.90;;;;;;4929187;28;20623;-68
2023/12/10 01:58:10;;;;;;;;;;;2.50;99.90;;;;;;4946009;28;20087;-68
2023/12/10 02:00:36;;;;;;;;;;;2.50;99.90;;;;;;4944828;28;20459;-68
2023/12/10 02:03:05;;;;;;;;;;;2.50;99.90;;;;;;4943035;28;19988;-68
2023/12/10 02:05:31;;;;;;;;;;;2.60;99.90;;;;;;4943661;28;19938;-68
2023/12/10 02:07:57;;;;;;;;;;;2.60;99.90;;;;;;4945564;28;19942;-68
2023/12/10 02:10:22;;;;;;;;;;;2.60;99.90;;;;;;4926869;28;20318;-68
2023/12/10 02:12:48;;;;;;;;;;;2.60;99.90;;;;;;4947141;28;20358;-68
2023/12/10 02:15:20;;;;;;;;;;;2.60;99.90;;;;;;4939964;28;19988;-69
2023/12/10 02:17:46;;;;;;;;;;;2.60;99.90;;;;;;4943615;28;19948;-68
2023/12/10 02:20:12;;;;;;;;;;;2.60;99.90;;;;;;4946187;28;20401;-68
2023/12/10 02:22:51;;;;;;;;;;;2.50;99.90;;;;;;4942897;28;19950;-69
2023/12/10 02:25:19;;;;;;;;;;;2.40;99.90;;;;;;4946466;28;20467;-69
2023/12/10 02:27:45;;;;;;;;;;;2.40;99.90;;;;;;4941435;28;19959;-69
2023/12/10 02:30:11;;;;;;;;;;;2.40;99.90;;;;;;4928804;28;20097;-69
2023/12/10 02:32:36;;;;;;;;;;;2.40;99.90;;;;;;4940813;28;20439;-69
2023/12/10 02:35:02;;;;;;;;;;;2.50;99.90;;;;;;4944794;28;20324;-68
2023/12/10 02:37:27;;;;;;;;;;;2.40;99.90;;;;;;4944244;28;19946;-68
2023/12/10 02:39:53;;;;;;;;;;;2.40;99.90;;;;;;4943968;28;19935;-68
2023/12/10 02:42:19;;;;;;;;;;;2.40;99.90;;;;;;4945483;28;19950;-68
2023/12/10 02:44:44;;;;;;;;;;;2.40;99.90;;;;;;4944862;28;19945;-68
2023/12/10 02:47:09;;;;;;;;;;;2.40;99.90;;;;;;4936810;28;19988;-68
2023/12/10 02:49:35;;;;;;;;;;;2.50;99.90;;;;;;4966041;28;19966;-63
2023/12/10 02:52:00;;;;;;;;;;;2.60;99.90;;;;;;4961101;28;19950;-63
2023/12/10 02:54:26;;;;;;;;;;;2.60;99.90;;;;;;4968105;28;19945;-63
2023/12/10 02:56:51;;;;;;;;;;;2.60;99.90;;;;;;4967867;28;20107;-63
2023/12/10 02:59:17;;;;;;;;;;;2.60;99.90;;;;;;4965286;28;19949;-64
2023/12/10 03:01:42;;;;;;;;;;;2.50;99.90;;;;;;4968224;28;20605;-62
2023/12/10 03:04:08;;;;;;;;;;;2.50;99.90;;;;;;4964953;28;19936;-63
2023/12/10 03:06:33;;;;;;;;;;;2.40;99.90;;;;;;4966570;28;19942;-62
2023/12/10 03:08:59;;;;;;;;;;;2.40;99.90;;;;;;4968720;28;19974;-68
2023/12/10 03:11:24;;;;;;;;;;;2.40;99.90;;;;;;4967214;28;20220;-67
2023/12/10 03:13:50;;;;;;;;;;;2.50;99.90;;;;;;4967168;28;19993;-68
2023/12/10 03:16:15;;;;;;;;;;;2.50;99.90;;;;;;4967752;28;19941;-67
2023/12/10 03:18:41;;;;;;;;;;;2.50;99.90;;;;;;4966698;28;19954;-67
2023/12/10 03:21:06;;;;;;;;;;;2.60;99.90;;;;;;4969620;28;19960;-68
2023/12/10 03:23:32;;;;;;;;;;;2.60;99.90;;;;;;4960638;28;20729;-68
2023/12/10 03:25:57;;;;;;;;;;;2.60;99.90;;;;;;4962834;28;19944;-63
2023/12/10 03:28:23;;;;;;;;;;;2.60;99.90;;;;;;4965192;28;19970;-63
2023/12/10 03:30:48;;;;;;;;;;;2.60;99.90;;;;;;4965657;28;19947;-63
2023/12/10 03:33:14;;;;;;;;;;;2.70;99.90;;;;;;4964414;28;19940;-63
2023/12/10 03:35:39;;;;;;;;;;;2.70;99.90;;;;;;4967178;28;19952;-63
2023/12/10 03:38:05;;;;;;;;;;;2.60;99.90;;;;;;4961008;28;19942;-63
2023/12/10 03:40:30;;;;;;;;;;;2.60;99.90;;;;;;4966193;28;20364;-62
2023/12/10 03:42:57;;;;;;;;;;;2.60;99.90;;;;;;4966470;28;20501;-63
2023/12/10 03:45:22;;;;;;;;;;;2.60;99.90;;;;;;4963650;28;19950;-63
2023/12/10 03:47:48;;;;;;;;;;;2.60;99.90;;;;;;4964210;28;20609;-62
2023/12/10 03:50:13;;;;;;;;;;;2.60;99.90;;;;;;4962709;28;20022;-64
2023/12/10 03:52:40;;;;;;;;;;;2.50;99.90;;;;;;4952640;28;20304;-63
2023/12/10 03:55:06;;;;;;;;;;;2.50;99.90;;;;;;4958683;28;19964;-63
2023/12/10 03:57:31;;;;;;;;;;;2.50;99.90;;;;;;4940899;28;20568;-63
2023/12/10 03:59:56;;;;;;;;;;;2.40;99.90;;;;;;4959789;28;20050;-62
2023/12/10 04:02:22;;;;;;;;;;;2.60;99.90;;;;;;4956629;28;19966;-63
2023/12/10 04:04:48;;;;;;;;;;;2.70;99.90;;;;;;4961996;28;19995;-68
2023/12/10 04:07:13;;;;;;;;;;;2.70;99.90;;;;;;4959990;28;19944;-68
2023/12/10 04:09:38;;;;;;;;;;;2.60;99.90;;;;;;4952028;28;20528;-69
2023/12/10 04:12:05;;;;;;;;;;;2.60;99.90;;;;;;4961573;28;20503;-69
2023/12/10 04:14:31;;;;;;;;;;;2.60;99.90;;;;;;4960428;28;19948;-69
2023/12/10 04:16:56;;;;;;;;;;;2.60;99.90;;;;;;4955465;28;20710;-69
2023/12/10 04:19:22;;;;;;;;;;;2.60;99.90;;;;;;4961527;28;20141;-69
2023/12/10 04:21:47;;;;;;;;;;;2.60;99.90;;;;;;4959333;28;19944;-69
2023/12/10 04:24:15;;;;;;;;;;;2.70;99.90;;;;;;4959400;28;20476;-69
2023/12/10 04:26:41;;;;;;;;;;;2.70;99.90;;;;;;4955072;28;20043;-69
2023/12/10 04:29:06;;;;;;;;;;;2.70;99.90;;;;;;4959091;28;19975;-68
2023/12/10 04:31:32;;;;;;;;;;;2.80;99.90;;;;;;4959021;28;20532;-68
2023/12/10 04:33:57;;;;;;;;;;;2.80;99.90;;;;;;4958174;28;19943;-68
2023/12/10 04:36:23;;;;;;;;;;;2.90;99.90;;;;;;4956030;28;19989;-69
2023/12/10 04:38:49;;;;;;;;;;;2.90;99.90;;;;;;4955723;28;19958;-69
2023/12/10 04:41:14;;;;;;;;;;;2.90;99.90;;;;;;4960291;28;19978;-64
2023/12/10 04:43:40;;;;;;;;;;;2.90;99.90;;;;;;4958293;28;20054;-64
2023/12/10 04:46:05;;;;;;;;;;;2.90;99.90;;;;;;4959073;28;20034;-64
2023/12/10 04:50:56;;;;;;;;;;;2.90;99.90;;;;;;4948545;28;20350;-64
2023/12/10 04:53:22;;;;;;;;;;;2.90;99.90;;;;;;4960526;28;19979;-64
2023/12/10 04:55:47;;;;;;;;;;;2.80;99.90;;;;;;4963326;28;20052;-64
2023/12/10 04:58:13;;;;;;;;;;;2.80;99.90;;;;;;4964776;28;20469;-64
2023/12/10 05:00:39;;;;;;;;;;;2.90;99.90;;;;;;4960677;28;20024;-64
2023/12/10 05:03:04;;;;;;;;;;;2.90;99.90;;;;;;4969850;28;19964;-64
2023/12/10 05:05:29;;;;;;;;;;;3.00;99.90;;;;;;4968536;28;19941;-64
2023/12/10 05:07:55;;;;;;;;;;;2.90;99.90;;;;;;4966421;28;20156;-64
2023/12/10 05:10:21;;;;;;;;;;;2.90;99.90;;;;;;4968918;28;19946;-64
2023/12/10 05:12:47;;;;;;;;;;;2.90;99.90;;;;;;4969091;28;19951;-64
2023/12/10 05:15:14;;;;;;;;;;;2.80;99.90;;;;;;4968309;28;19950;-64
2023/12/10 05:17:39;;;;;;;;;;;2.90;99.90;;;;;;4967605;28;19954;-64
2023/12/10 05:20:05;;;;;;;;;;;2.90;99.90;;;;;;4969643;28;20040;-64
2023/12/10 05:22:31;;;;;;;;;;;2.90;99.90;;;;;;4969274;28;19958;-64
2023/12/10 05:24:57;;;;;;;;;;;2.90;99.90;;;;;;4966912;28;20475;-64
2023/12/10 05:27:22;;;;;;;;;;;2.90;99.90;;;;;;4964264;28;19971;-64
2023/12/10 05:29:48;;;;;;;;;;;2.90;99.90;;;;;;4968855;28;19973;-64
2023/12/10 05:32:13;;;;;;;;;;;2.90;99.90;;;;;;4967352;28;19941;-64
2023/12/10 05:34:39;;;;;;;;;;;2.90;99.90;;;;;;4969861;28;20791;-64
2023/12/10 05:37:04;;;;;;;;;;;2.80;99.90;;;;;;4968346;28;19941;-64
2023/12/10 05:39:30;;;;;;;;;;;2.80;99.90;;;;;;4967105;28;19942;-64
2023/12/10 05:41:55;;;;;;;;;;;2.80;99.90;;;;;;4966738;28;19946;-64
2023/12/10 05:44:21;;;;;;;;;;;2.80;99.90;;;;;;4967938;28;20068;-64
2023/12/10 05:46:46;;;;;;;;;;;2.80;99.90;;;;;;4965832;28;19972;-64
2023/12/10 05:49:12;;;;;;;;;;;2.80;99.90;;;;;;4971314;28;19973;-67
2023/12/10 05:51:37;;;;;;;;;;;2.70;99.90;;;;;;4968545;28;20022;-64
2023/12/10 05:54:03;;;;;;;;;;;2.70;99.90;;;;;;4969579;28;20010;-63
2023/12/10 05:56:28;;;;;;;;;;;2.70;99.90;;;;;;4968215;28;20426;-64
2023/12/10 05:58:54;;;;;;;;;;;2.70;99.90;;;;;;4965968;28;21809;-64
2023/12/10 06:01:19;;;;;;;;;;;2.70;99.90;;;;;;4966107;28;19942;-64
2023/12/10 06:03:45;;;;;;;;;;;2.70;99.90;;;;;;4957851;28;19935;-64
2023/12/10 06:06:10;;;;;;;;;;;2.80;99.90;;;;;;4960417;28;20394;-65
2023/12/10 06:08:36;;;;;;;;;;;2.80;99.90;;;;;;4960752;28;19980;-64
2023/12/10 06:11:02;;;;;;;;;;;2.80;99.90;;;;;;4959483;28;20438;-64
2023/12/10 06:13:28;;;;;;;;;;;2.70;99.90;;;;;;4944888;28;19937;-69
2023/12/10 06:15:56;;;;;;;;;;;2.60;99.90;;;;;;4960312;28;20300;-69
2023/12/10 06:18:21;;;;;;;;;;;2.70;99.90;;;;;;4939942;28;19950;-69
2023/12/10 06:20:47;;;;;;;;;;;2.70;99.90;;;;;;4956635;28;19942;-69
2023/12/10 06:23:12;;;;;;;;;;;2.80;99.90;;;;;;4961787;28;19951;-70
2023/12/10 06:25:38;;;;;;;;;;;2.80;99.90;;;;;;4962521;28;20414;-69
2023/12/10 06:28:03;;;;;;;;;;;2.80;99.90;;;;;;4964252;28;19950;-69
2023/12/10 06:30:29;;;;;;;;;;;2.90;99.90;;;;;;4966229;28;19940;-69
2023/12/10 06:32:55;;;;;;;;;;;2.80;99.90;;;;;;4968287;28;19949;-69
2023/12/10 06:35:21;;;;;;;;;;;2.80;99.90;;;;;;4960480;28;20374;-68
2023/12/10 06:37:46;;;;;;;;;;;2.80;99.90;;;;;;4967634;28;19953;-69
2023/12/10 06:40:12;;;;;;;;;;;2.80;99.90;;;;;;4966624;28;20044;-69
2023/12/10 06:42:38;;;;;;;;;;;2.80;99.90;;;;;;4968995;28;19955;-68
2023/12/10 06:45:03;;;;;;;;;;;2.80;99.90;;;;;;4963474;28;20036;-69
2023/12/10 06:47:29;;;;;;;;;;;2.80;99.90;;;;;;4960905;28;20378;-69
2023/12/10 06:49:55;;;;;;;;;;;2.80;99.90;;;;;;4960349;28;20503;-69
2023/12/10 06:52:20;;;;;;;;;;;2.80;99.90;;;;;;4963840;28;19985;-68
2023/12/10 06:54:46;;;;;;;;;;;2.80;99.90;;;;;;4967486;28;19953;-74
2023/12/10 06:57:11;;;;;;;;;;;2.80;99.90;;;;;;4964489;28;20080;-69
2023/12/10 06:59:37;;;;;;;;;;;2.80;99.90;;;;;;4961934;28;20383;-69
2023/12/10 07:02:02;;;;;;;;;;;2.80;99.90;;;;;;4963441;28;19964;-68
2023/12/10 07:04:28;;;;;;;;;;;2.80;99.90;;;;;;4964772;28;19944;-68
2023/12/10 07:06:53;;;;;;;;;;;2.80;99.90;;;;;;4944649;28;20455;-64
2023/12/10 07:09:19;;;;;;;;;;;2.80;99.90;;;;;;4961123;28;19994;-64
2023/12/10 07:11:44;;;;;;;;;;;2.70;99.90;;;;;;4965499;28;19959;-64
2023/12/10 07:14:10;;;;;;;;;;;2.80;99.90;;;;;;4965969;28;20543;-64
2023/12/10 07:16:35;;;;;;;;;;;2.70;99.90;;;;;;4967707;28;19955;-64
2023/12/10 07:19:01;;;;;;;;;;;2.70;99.90;;;;;;4968196;28;19937;-64
2023/12/10 07:21:26;;;;;;;;;;;2.80;99.90;;;;;;4961051;28;19999;-64
2023/12/10 07:23:52;;;;;;;;;;;2.90;99.90;;;;;;4958706;28;20449;-64
2023/12/10 07:26:24;;;;;;;;;;;2.90;99.90;;;;;;4962751;28;19949;-64
2023/12/10 07:28:51;;;;;;;;;;;2.90;99.90;;;;;;4963658;28;19965;-64
2023/12/10 07:31:16;;;;;;;;;;;2.90;99.90;;;;;;4968677;28;20417;-64
2023/12/10 07:33:44;;;;;;;;;;;2.90;99.90;;;;;;4962640;28;21644;-64
2023/12/10 07:36:10;;;;;;;;;;;2.90;99.90;;;;;;4966563;28;20120;-64
2023/12/10 07:38:35;;;;;;;;;;;3.00;99.90;;;;;;4940304;28;19949;-64
2023/12/10 07:41:01;;;;;;;;;;;3.00;99.90;;;;;;4967937;28;19948;-64
2023/12/10 07:43:27;;;;;;;;;;;3.00;99.90;;;;;;4967971;28;20691;-64
2023/12/10 07:45:52;;;;;;;;;;;3.00;99.90;;;;;;4946591;28;19951;-64
2023/12/10 07:48:18;;;;;;;;;;;3.10;99.90;;;;;;4964041;28;20447;-64
2023/12/10 07:50:44;;;;;;;;;;;3.20;99.90;;;;;;4964746;28;19940;-64
2023/12/10 07:53:10;;;;;;;;;;;3.10;99.90;;;;;;4968802;28;19951;-64
2023/12/10 07:55:35;;;;;;;;;;;3.10;99.90;;;;;;4966171;28;20097;-63
2023/12/10 07:58:01;;;;;;;;;;;3.10;99.90;;;;;;4952317;28;20429;-63
2023/12/10 08:00:27;;;;;;;;;;;3.10;99.90;;;;;;4964563;28;20394;-64
2023/12/10 08:02:52;;;;;;;;;;;3.00;99.90;;;;;;4960034;28;20044;-64
2023/12/10 08:05:18;;;;;;;;;;;3.00;99.90;;;;;;4966932;28;19937;-64
2023/12/10 08:07:43;;;;;;;;;;;3.10;99.90;;;;;;4963139;28;19944;-63
2023/12/10 08:10:09;;;;;;;;;;;3.10;99.90;;;;;;4966414;28;19972;-63
2023/12/10 08:12:34;;;;;;;;;;;3.10;99.90;;;;;;4966398;28;21727;-63
2023/12/10 08:15:00;;;;;;;;;;;3.10;99.90;;;;;;4967232;28;20302;-63
2023/12/10 08:17:26;;;;;;;;;;;3.20;99.90;;;;;;4966274;28;19951;-64
2023/12/10 08:19:51;;;;;;;;;;;3.20;99.90;;;;;;4961141;28;19944;-63
2023/12/10 08:22:17;;;;;;;;;;;3.10;99.90;;;;;;4963121;28;20040;-63
2023/12/10 08:24:43;;;;;;;;;;;3.10;99.90;;;;;;4968804;28;20126;-63
2023/12/10 08:27:09;;;;;;;;;;;3.10;99.90;;;;;;4970040;28;19967;-63
2023/12/10 08:29:34;;;;;;;;;;;3.10;99.90;;;;;;4967122;28;19970;-72
2023/12/10 08:32:00;;;;;;;;;;;3.10;99.90;;;;;;4968931;28;19945;-69
2023/12/10 08:34:25;;;;;;;;;;;3.20;99.90;;;;;;4961232;28;20429;-64
2023/12/10 08:36:51;;;;;;;;;;;3.20;99.90;;;;;;4925279;28;19944;-64
2023/12/10 08:39:16;;;;;;;;;;;3.20;99.90;;;;;;4961446;28;20120;-64
2023/12/10 08:41:42;;;;;;;;;;;3.20;99.90;;;;;;4961530;28;20071;-64
2023/12/10 08:44:07;;;;;;;;;;;3.20;99.90;;;;;;4970567;28;19998;-64
2023/12/10 08:46:33;;;;;;;;;;;3.20;99.90;;;;;;4967754;28;20014;-65
2023/12/10 08:48:59;;;;;;;;;;;3.20;99.90;;;;;;4950085;28;19962;-63
2023/12/10 08:51:25;;;;;;;;;;;3.20;99.90;;;;;;4968286;28;19941;-67
2023/12/10 08:53:51;;;;;;;;;;;3.30;99.90;;;;;;4969320;28;20064;-67
2023/12/10 08:56:16;;;;;;;;;;;3.30;99.90;;;;;;4972966;28;20020;-68
2023/12/10 08:58:42;;;;;;;;;;;3.30;99.90;;;;;;4960374;28;19998;-68
2023/12/10 09:01:07;;;;;;;;;;;3.40;99.90;;;;;;4963224;28;19953;-71
2023/12/10 09:03:33;;;;;;;;;;;3.40;99.90;;;;;;4950034;28;20491;-69
2023/12/10 09:05:58;;;;;;;;;;;3.40;99.90;;;;;;4966079;28;20269;-68
2023/12/10 09:08:26;;;;;;;;;;;3.40;99.90;;;;;;4966028;28;19943;-64
2023/12/10 09:10:52;;;;;;;;;;;3.40;99.90;;;;;;4962610;28;20438;-68
2023/12/10 09:13:17;;;;;;;;;;;3.40;99.90;;;;;;4963437;28;19947;-68
2023/12/10 09:15:43;;;;;;;;;;;3.40;99.90;;;;;;4968586;28;20390;-69
2023/12/10 09:18:09;;;;;;;;;;;3.40;99.90;;;;;;4959796;28;20388;-69
2023/12/10 09:20:36;;;;;;;;;;;3.40;99.90;;;;;;4970433;28;19998;-69
2023/12/10 09:23:01;;;;;;;;;;;3.50;99.90;;;;;;4969885;28;19987;-68
2023/12/10 09:25:27;;;;;;;;;;;3.50;99.90;;;;;;4960065;28;19943;-67
2023/12/10 09:27:52;;;;;;;;;;;3.60;99.90;;;;;;4956450;28;19946;-64
2023/12/10 09:30:18;;;;;;;;;;;3.60;99.90;;;;;;4966332;28;20064;-65
2023/12/10 09:32:44;;;;;;;;;;;3.60;99.90;;;;;;4964845;28;19984;-65
2023/12/10 09:35:09;;;;;;;;;;;3.60;99.90;;;;;;4965009;28;19944;-68
2023/12/10 09:37:37;;;;;;;;;;;3.60;99.90;;;;;;4972169;28;19947;-64
2023/12/10 09:40:03;;;;;;;;;;;3.70;99.90;;;;;;4967227;28;20127;-66
2023/12/10 09:42:28;;;;;;;;;;;3.60;99.90;;;;;;4969331;28;19953;-65
2023/12/10 09:44:54;;;;;;;;;;;3.60;99.90;;;;;;4971333;28;19942;-64
2023/12/10 09:47:19;;;;;;;;;;;3.60;99.90;;;;;;4974021;28;19964;-64
2023/12/10 09:49:46;;;;;;;;;;;3.60;99.90;;;;;;4971272;28;20058;-64
2023/12/10 09:52:12;;;;;;;;;;;3.60;99.90;;;;;;4972128;28;20041;-65
2023/12/10 09:54:40;;;;;;;;;;;3.70;99.90;;;;;;4972299;28;20645;-65
2023/12/10 09:57:06;;;;;;;;;;;3.70;99.90;;;;;;4971694;28;19976;-64
2023/12/10 09:59:31;;;;;;;;;;;3.70;99.90;;;;;;4974814;28;20046;-64
2023/12/10 10:01:57;;;;;;;;;;;3.80;99.90;;;;;;4971681;28;19982;-64
2023/12/10 10:04:23;;;;;;;;;;;3.70;99.90;;;;;;4964879;28;19941;-63
2023/12/10 10:06:48;;;;;;;;;;;3.70;99.90;;;;;;4971978;28;20396;-63
2023/12/10 10:09:14;;;;;;;;;;;3.70;99.90;;;;;;4972443;28;19966;-63
2023/12/10 10:11:40;;;;;;;;;;;3.80;99.90;;;;;;4971990;28;19960;-64
2023/12/10 10:14:05;;;;;;;;;;;3.80;99.90;;;;;;4973492;28;19956;-64
2023/12/10 10:16:31;;;;;;;;;;;3.80;99.90;;;;;;4973153;28;20091;-64
2023/12/10 10:18:59;;;;;;;;;;;3.70;99.90;;;;;;4969646;28;19946;-64
2023/12/10 10:21:24;;;;;;;;;;;3.70;99.90;;;;;;4972190;28;20579;-64
2023/12/10 10:23:50;;;;;;;;;;;3.80;99.90;;;;;;4972101;28;19941;-64
2023/12/10 10:26:17;;;;;;;;;;;3.80;99.90;;;;;;4974580;28;19947;-64
2023/12/10 10:28:44;;;;;;;;;;;3.80;99.90;;;;;;4970560;28;20571;-64
2023/12/10 10:31:10;;;;;;;;;;;3.90;99.90;;;;;;4973887;28;20047;-64
2023/12/10 10:33:35;;;;;;;;;;;3.90;99.90;;;;;;4974742;28;19946;-64
2023/12/10 10:36:01;;;;;;;;;;;4.00;99.90;;;;;;4971323;28;20092;-64
2023/12/10 10:38:28;;;;;;;;;;;4.00;99.90;;;;;;4971572;28;20574;-64
2023/12/10 10:40:55;;;;;;;;;;;4.10;99.90;;;;;;4969452;28;19940;-65
2023/12/10 10:43:21;;;;;;;;;;;4.10;99.90;;;;;;4956801;28;19946;-64
2023/12/10 10:45:46;;;;;;;;;;;4.10;99.90;;;;;;4965131;28;19984;-64
2023/12/10 10:48:12;;;;;;;;;;;4.20;99.90;;;;;;4968674;28;19999;-64
2023/12/10 10:50:39;;;;;;;;;;;4.20;99.90;;;;;;4969336;28;21023;-64
2023/12/10 10:53:05;;;;;;;;;;;4.20;99.90;;;;;;4970601;28;19937;-64
2023/12/10 10:55:34;;;;;;;;;;;4.20;99.90;;;;;;4970710;28;19951;-64
2023/12/10 10:58:19;;;;;;;;;;;4.10;99.90;;;;;;4969562;28;19939;-64
2023/12/10 11:00:45;;;;;;;;;;;4.10;99.90;;;;;;4969805;28;20383;-63
2023/12/10 11:03:10;;;;;;;;;;;4.20;99.90;;;;;;4970540;28;19943;-64
2023/12/10 11:05:36;;;;;;;;;;;4.10;99.90;;;;;;4973453;28;20021;-63
2023/12/10 11:08:04;;;;;;;;;;;4.00;99.90;;;;;;4975283;28;19939;-63
2023/12/10 11:10:29;;;;;;;;;;;4.00;99.90;;;;;;4969698;28;19974;-64
2023/12/10 11:12:56;;;;;;;;;;;4.00;99.90;;;;;;4973093;28;20010;-64
2023/12/10 11:15:23;;;;;;;;;;;3.90;99.90;;;;;;4973132;28;20024;-64
2023/12/10 11:17:49;;;;;;;;;;;3.90;99.90;;;;;;4951877;28;19981;-65
2023/12/10 11:20:30;;;;;;;;;;;4.00;99.90;;;;;;4972283;28;20031;-65
2023/12/10 11:22:56;;;;;;;;;;;4.10;99.90;;;;;;4972045;28;19943;-64
2023/12/10 11:25:22;;;;;;;;;;;4.10;99.90;;;;;;4964526;28;20414;-64
2023/12/10 11:27:47;;;;;;;;;;;4.00;99.90;;;;;;4963470;28;19958;-64
2023/12/10 11:30:13;;;;;;;;;;;4.00;99.90;;;;;;4963096;28;20522;-64
2023/12/10 11:32:38;;;;;;;;;;;4.10;99.90;;;;;;4969644;28;19956;-65
2023/12/10 11:35:04;;;;;;;;;;;4.10;99.90;;;;;;4948806;28;19947;-65
2023/12/10 11:37:29;;;;;;;;;;;4.20;99.90;;;;;;4974582;28;20014;-67
2023/12/10 11:39:55;;;;;;;;;;;4.30;99.90;;;;;;4958452;28;20380;-68
2023/12/10 11:42:21;;;;;;;;;;;4.30;99.90;;;;;;4968826;28;20430;-68
2023/12/10 11:44:46;;;;;;;;;;;4.20;99.90;;;;;;4952398;28;19949;-66
2023/12/10 11:47:11;;;;;;;;;;;4.20;99.90;;;;;;4968047;28;20352;-66
2023/12/10 11:49:37;;;;;;;;;;;4.20;99.90;;;;;;4971198;28;19958;-66
2023/12/10 11:52:03;;;;;;;;;;;4.30;99.90;;;;;;4969652;28;19970;-68
2023/12/10 11:54:29;;;;;;;;;;;4.20;99.90;;;;;;4967581;28;19949;-67
2023/12/10 11:56:55;;;;;;;;;;;4.20;99.90;;;;;;4970226;28;20054;-67
2023/12/10 11:59:20;;;;;;;;;;;4.30;99.90;;;;;;4970394;28;21079;-66
2023/12/10 12:01:46;;;;;;;;;;;4.30;99.90;;;;;;4971972;28;20281;-68
2023/12/10 12:04:12;;;;;;;;;;;4.30;99.90;;;;;;4977966;28;20685;-67
2023/12/10 12:06:41;;;;;;;;;;;4.30;99.90;;;;;;4975124;28;19934;-68
2023/12/10 12:09:06;;;;;;;;;;;4.30;99.90;;;;;;4974609;28;19966;-67
2023/12/10 12:11:32;;;;;;;;;;;4.30;99.90;;;;;;4975530;28;19979;-65
2023/12/10 12:13:58;;;;;;;;;;;4.20;99.90;;;;;;4977419;28;20315;-63
2023/12/10 12:16:23;;;;;;;;;;;4.20;99.90;;;;;;4968531;28;20298;-64
2023/12/10 12:18:49;;;;;;;;;;;4.20;99.90;;;;;;4972500;28;20364;-64
2023/12/10 12:21:14;;;;;;;;;;;4.10;99.90;;;;;;4974428;28;19935;-64
2023/12/10 12:23:39;;;;;;;;;;;4.20;99.90;;;;;;4974853;28;20100;-64
2023/12/10 12:26:05;;;;;;;;;;;4.10;99.90;;;;;;4973006;28;19942;-64
2023/12/10 12:28:30;;;;;;;;;;;4.10;99.90;;;;;;4973306;28;19981;-64
2023/12/10 12:30:56;;;;;;;;;;;4.00;99.90;;;;;;4974980;28;21161;-64
2023/12/10 12:33:21;;;;;;;;;;;4.00;99.90;;;;;;4971475;28;19944;-66
2023/12/10 12:35:47;;;;;;;;;;;4.00;99.90;;;;;;4976424;28;19997;-67
2023/12/10 12:38:12;;;;;;;;;;;3.90;99.90;;;;;;4972784;28;19992;-66
2023/12/10 12:40:38;;;;;;;;;;;3.80;99.90;;;;;;4970524;28;19952;-66
2023/12/10 12:43:03;;;;;;;;;;;3.90;99.90;;;;;;4972623;28;20141;-66
2023/12/10 12:45:29;;;;;;;;;;;4.00;99.90;;;;;;4975567;28;19988;-65
2023/12/10 12:47:55;;;;;;;;;;;4.00;99.90;;;;;;4962928;28;21250;-66
2023/12/10 12:50:21;;;;;;;;;;;4.10;99.90;;;;;;4975401;28;20004;-66
2023/12/10 12:52:47;;;;;;;;;;;4.10;99.90;;;;;;4954696;28;20514;-65
2023/12/10 12:55:12;;;;;;;;;;;4.10;99.90;;;;;;4971275;28;19992;-66
2023/12/10 12:57:38;;;;;;;;;;;4.10;99.90;;;;;;4969002;28;19939;-64
2023/12/10 13:00:04;;;;;;;;;;;4.20;99.90;;;;;;4964258;28;19964;-65
2023/12/10 13:02:30;;;;;;;;;;;4.20;99.90;;;;;;4964661;28;19940;-64
2023/12/10 13:04:56;;;;;;;;;;;4.20;99.90;;;;;;4963123;28;20512;-65
2023/12/10 13:07:22;;;;;;;;;;;4.20;99.90;;;;;;4963014;28;20566;-65
2023/12/10 13:09:47;;;;;;;;;;;4.20;99.90;;;;;;4958877;28;19967;-66
2023/12/10 13:12:13;;;;;;;;;;;4.30;99.90;;;;;;4961706;28;20000;-66
2023/12/10 13:14:39;;;;;;;;;;;4.40;99.90;;;;;;4961103;28;20455;-66
2023/12/10 13:17:05;;;;;;;;;;;4.40;99.90;;;;;;4955689;28;19997;-65
2023/12/10 13:19:31;;;;;;;;;;;4.40;99.90;;;;;;4962311;28;19937;-66
2023/12/10 13:21:56;;;;;;;;;;;4.30;99.90;;;;;;4956175;28;20447;-66
2023/12/10 13:24:22;;;;;;;;;;;4.30;99.90;;;;;;4962938;28;19944;-66
2023/12/10 13:26:48;;;;;;;;;;;4.40;99.90;;;;;;4965992;28;20215;-66
2023/12/10 13:29:14;;;;;;;;;;;4.40;99.90;;;;;;4964284;28;20028;-66
2023/12/10 13:31:39;;;;;;;;;;;4.40;99.90;;;;;;4965074;28;19955;-66
2023/12/10 13:34:06;;;;;;;;;;;4.40;99.90;;;;;;4973627;28;20044;-65
2023/12/10 13:36:31;;;;;;;;;;;4.40;99.90;;;;;;4972137;28;20014;-65
2023/12/10 13:38:57;;;;;;;;;;;4.40;99.90;;;;;;4967572;28;20345;-66
2023/12/10 13:41:23;;;;;;;;;;;4.40;99.90;;;;;;4973820;28;20634;-66
2023/12/10 13:43:48;;;;;;;;;;;4.50;99.90;;;;;;4969094;28;20040;-66
2023/12/10 13:46:14;;;;;;;;;;;4.40;99.90;;;;;;4975562;28;20498;-65
2023/12/10 13:48:39;;;;;;;;;;;4.30;99.90;;;;;;4973618;28;19959;-67
2023/12/10 13:51:05;;;;;;;;;;;4.30;99.90;;;;;;4972455;28;20400;-65
2023/12/10 13:53:30;;;;;;;;;;;4.30;99.90;;;;;;4962752;28;19982;-68
2023/12/10 13:55:56;;;;;;;;;;;4.30;99.90;;;;;;4972094;28;19943;-67
2023/12/10 13:58:22;;;;;;;;;;;4.30;99.90;;;;;;4974662;28;20038;-67
2023/12/10 14:00:47;;;;;;;;;;;4.40;99.90;;;;;;4960799;28;19990;-67
2023/12/10 14:03:13;;;;;;;;;;;4.40;99.90;;;;;;4976474;28;20082;-69
2023/12/10 14:05:39;;;;;;;;;;;4.40;99.90;;;;;;4961901;28;19943;-66
2023/12/10 14:08:04;;;;;;;;;;;4.40;99.90;;;;;;4970208;28;19950;-66
2023/12/10 14:10:30;;;;;;;;;;;4.50;99.90;;;;;;4973890;28;19961;-66
2023/12/10 14:12:55;;;;;;;;;;;4.40;99.90;;;;;;4973409;28;20494;-65
2023/12/10 14:15:21;;;;;;;;;;;4.40;99.90;;;;;;4972055;28;20028;-66
2023/12/10 14:17:46;;;;;;;;;;;4.40;99.90;;;;;;4980987;28;19938;-66
2023/12/10 14:20:12;;;;;;;;;;;4.30;99.90;;;;;;4979800;28;19939;-66
2023/12/10 14:22:37;;;;;;;;;;;4.30;99.90;;;;;;4976209;28;19993;-68
2023/12/10 14:25:03;;;;;;;;;;;4.30;99.90;;;;;;4977606;28;20375;-65